Latest Weather Observations for Strahan

IDT60801

Issued at 9:01 pm EDT Tuesday 26 January 2021 (issued every 10 minutes, with the page automatically refreshed every 10 minutes)

About weather observations | Map of weather stations | Latest weather observations for TAS | Other Formats
Station Details ID: 097072 Name: STRAHAN AERODROME Lat: -42.16 Lon: 145.29 Height: 21.0 m
Data from the previous 72 hours. | See also: Recent months at Strahan
Date/Time
EDT
Temp
°C
App
Temp
°C
Dew
Point
°C
Rel
Hum
%
Delta-T
°C
Wind Press
QNH
hPa
Press
MSL
hPa
Rain since
9am
mm
Dir  Spd
km/h
Gust
km/h
Spd
kts
Gust
kts
26/09:00pm 12.2 7.2 6.3 67 2.8 SSW 22 32 12 17 1011.1 1011.1 0.4
26/08:30pm 12.1 7.5 6.6 69 2.6 SSW 20 32 11 17 1010.6 1010.6 0.4
26/08:00pm 11.7 8.6 8.7 82 1.5 SSW 15 19 8 10 1010.2 1010.2 0.4
26/07:30pm 12.4 8.3 7.7 73 2.3 SSW 19 28 10 15 1009.4 1009.4 0.4
26/07:00pm 13.4 8.4 6.3 62 3.4 SSW 22 30 12 16 1009.0 1009.0 0.4
26/06:30pm 14.7 9.3 6.3 57 4.0 SW 24 33 13 18 1008.6 1008.6 0.4
26/06:00pm 14.9 9.0 5.7 54 4.4 SSW 26 35 14 19 1008.2 1008.2 0.4
26/05:30pm 14.7 9.0 6.8 59 3.8 SSW 26 35 14 19 1008.0 1008.0 0.4
26/05:00pm 14.8 8.4 5.1 52 4.6 SW 28 39 15 21 1007.7 1007.7 0.4
26/04:30pm 15.3 9.1 6.3 55 4.4 SSW 28 37 15 20 1007.2 1007.2 0.4
26/04:00pm 15.3 9.4 7.6 60 3.8 SSW 28 37 15 20 1006.9 1006.9 0.4
26/03:30pm 15.9 10.3 8.6 62 3.7 SW 28 37 15 20 1006.3 1006.3 0.4
26/03:00pm 16.1 10.3 8.1 59 4.1 SW 28 43 15 23 1006.1 1006.1 0.4
26/02:30pm 15.1 8.2 7.2 59 3.9 SW 33 46 18 25 1005.8 1005.8 0.4
26/02:00pm 16.2 9.8 9.4 64 3.5 SW 33 44 18 24 1005.2 1005.2 0.4
26/01:30pm 14.7 8.6 9.7 72 2.6 SW 32 44 17 24 1004.8 1004.8 0.4
26/01:00pm 14.7 9.4 9.9 73 2.5 SW 28 37 15 20 1004.3 1004.3 0.4
26/12:30pm 14.7 8.7 10.9 78 2.0 SSW 33 44 18 24 1003.9 1003.9 0.4
26/12:00pm 15.6 9.1 11.8 78 2.1 SW 37 46 20 25 1003.3 1003.3 0.4
26/11:52am 15.7 10.2 12.3 80 1.9 SW 33 46 18 25 1003.1 1003.1 0.4
26/11:30am 14.7 9.1 13.2 91 0.8 SW 35 46 19 25 1002.9 1002.9 0.4
26/11:29am 14.8 9.3 13.7 93 0.6 SW 35 44 19 24 1002.8 1002.8 0.4
26/11:12am 15.1 9.6 13.6 91 0.8 SW 35 54 19 29 1002.3 1002.3 0.4
26/11:00am 16.4 12.1 15.4 94 0.6 SW 32 48 17 26 1002.0 1002.0 0.4
26/10:59am 16.4 12.5 15.4 94 0.6 WSW 30 48 16 26 1001.9 1001.9 0.4
26/10:30am 16.3 12.9 14.7 90 0.9 WSW 26 37 14 20 1001.3 1001.3 0.4
26/10:00am 15.2 12.2 14.7 97 0.3 WSW 24 33 13 18 1001.2 1001.2 0.4
26/09:30am 15.5 14.7 15.2 98 0.2 NW 13 17 7 9 1000.8 1000.8 0.0
26/09:27am 15.6 14.9 15.3 98 0.2 WNW 13 17 7 9 1000.9 1000.9 0.0
26/09:09am 14.9 13.9 14.6 98 0.2 WNW 13 19 7 10 1000.8 1000.8 0.0
26/09:00am 15.0 14.5 14.8 99 0.1 NNW 11 17 6 9 1000.7 1000.7 23.2
26/08:30am 15.0 15.2 14.8 99 0.1 N 7 9 4 5 1000.2 1000.2 23.2
26/08:00am 14.3 14.3 14.1 99 0.1 NW 7 9 4 5 999.8 999.8 23.2
26/07:30am 14.1 13.6 13.9 99 0.1 WNW 9 11 5 6 999.6 999.6 23.2
26/07:00am 13.6 12.7 13.6 100 0.0 WNW 11 15 6 8 999.4 999.4 23.2
26/06:37am 13.4 12.4 13.4 100 0.0 WNW 11 15 6 8 999.0 999.0 23.2
26/06:30am 13.4 12.4 13.4 100 0.0 W 11 15 6 8 998.9 998.9 23.2
26/06:00am 13.6 14.0 13.6 100 0.0 NNE 4 9 2 5 999.0 999.0 23.2
26/05:31am 13.6 13.6 13.6 100 0.0 ESE 6 7 3 4 998.8 998.8 23.2
26/05:30am 13.6 14.0 13.6 100 0.0 ESE 4 7 2 4 998.8 998.8 23.2
26/05:15am 13.6 13.6 13.6 100 0.0 ENE 6 9 3 5 998.8 998.8 23.2
26/05:00am 13.6 14.0 13.6 100 0.0 WNW 4 6 2 3 998.7 998.7 23.2
26/04:55am 13.7 14.1 13.7 100 0.0 WNW 4 6 2 3 998.7 998.7 23.2
26/04:30am 13.5 12.9 13.5 100 0.0 WNW 9 13 5 7 998.5 998.5 23.0
26/04:09am 13.7 13.5 13.7 100 0.0 WNW 7 11 4 6 998.1 998.1 22.8
26/04:02am 13.8 13.3 13.8 100 0.0 W 9 13 5 7 998.4 998.4 22.6
26/04:00am 13.8 13.3 13.8 100 0.0 W 9 13 5 7 998.4 998.4 22.6
26/03:30am 13.9 13.1 13.9 100 0.0 W 11 13 6 7 998.2 998.2 21.2
26/03:10am 14.0 15.3 14.0 100 0.0 CALM 0 6 0 3 998.1 998.1 20.0
26/03:08am 14.0 14.9 14.0 100 0.0 WSW 2 6 1 3 998.0 998.0 19.8
26/03:00am 14.0 13.9 14.0 100 0.0 WSW 7 11 4 6 998.2 998.2 19.2
26/02:30am 14.1 12.9 14.1 100 0.0 SW 13 20 7 11 998.2 998.2 18.0
26/02:14am 14.6 14.4 14.6 100 0.0 WSW 9 13 5 7 998.2 998.2 17.6
26/02:06am 14.6 14.4 14.6 100 0.0 WSW 9 13 5 7 998.3 998.3 17.6
26/02:00am 14.6 14.0 14.6 100 0.0 WSW 11 15 6 8 998.4 998.4 17.4
26/01:30am 14.8 13.5 14.8 100 0.0 WSW 15 20 8 11 998.4 998.4 16.8
26/01:00am 15.0 13.4 15.0 100 0.0 WSW 17 22 9 12 998.5 998.5 16.6
26/12:42am 15.3 14.6 15.3 100 0.0 WNW 13 20 7 11 998.6 998.6 16.0
26/12:34am 15.2 14.1 15.2 100 0.0 WNW 15 20 8 11 998.7 998.7 15.8
26/12:30am 15.2 14.1 15.2 100 0.0 WNW 15 20 8 11 998.7 998.7 15.8
26/12:00am 15.5 14.1 15.5 100 0.0 WNW 17 24 9 13 998.8 998.8 14.6
 
Date/Time
EDT
Temp
°C
App
Temp
°C
Dew
Point
°C
Rel
Hum
%
Delta-T
°C
Wind Press
QNH
hPa
Press
MSL
hPa
Rain since
9am
mm
Dir  Spd
km/h
Gust
km/h
Spd
kts
Gust
kts
25/11:57pm 15.5 14.1 15.5 100 0.0 NW 17 24 9 13 998.9 998.9 14.4
25/11:34pm 15.6 14.6 15.6 100 0.0 NW 15 20 8 11 998.7 998.7 13.6
25/11:30pm 15.6 15.0 15.6 100 0.0 NW 13 19 7 10 998.8 998.8 13.4
25/11:00pm 15.6 14.2 15.6 100 0.0 WNW 17 22 9 12 999.2 999.2 12.8
25/10:30pm 15.8 13.2 15.8 100 0.0 WNW 24 32 13 17 999.2 999.2 12.0
25/10:21pm 15.8 13.2 15.8 100 0.0 WNW 24 33 13 18 999.4 999.4 12.0
25/10:00pm 15.9 13.7 15.9 100 0.0 WNW 22 33 12 18 999.0 999.0 11.8
25/09:30pm 16.0 12.6 15.8 99 0.1 W 28 39 15 21 998.4 998.4 10.8
25/09:04pm 16.4 12.7 16.1 98 0.2 WNW 30 44 16 24 997.7 997.7 9.4
25/09:00pm 16.6 14.2 16.3 98 0.2 WNW 24 39 13 21 997.5 997.5 9.2
25/08:52pm 18.6 19.1 18.4 99 0.1 NW 13 20 7 11 997.0 997.0 8.2
25/08:30pm 18.8 19.4 18.6 99 0.1 N 13 17 7 9 996.2 996.2 7.2
25/08:00pm 19.0 19.7 18.8 99 0.1 NNE 13 19 7 10 996.3 996.3 6.6
25/07:30pm 19.0 19.7 18.8 99 0.1 NNE 13 17 7 9 996.7 996.7 6.4
25/07:00pm 19.3 20.1 19.1 99 0.1 N 13 17 7 9 997.4 997.4 6.2
25/06:30pm 19.3 19.7 19.1 99 0.1 N 15 20 8 11 997.6 997.6 5.8
25/06:00pm 19.5 20.8 19.3 99 0.1 N 11 17 6 9 997.6 997.6 5.2
25/05:50pm 19.6 20.6 19.4 99 0.1 N 13 15 7 8 997.9 997.9 4.8
25/05:31pm 19.7 20.3 19.5 99 0.1 N 15 24 8 13 997.5 997.5 3.6
25/05:30pm 19.8 20.5 19.6 99 0.1 N 15 24 8 13 997.9 997.9 3.4
25/05:00pm 19.8 21.6 19.5 98 0.2 NNE 9 13 5 7 997.8 997.8 2.2
25/04:30pm 19.8 21.2 19.5 98 0.2 N 11 17 6 9 998.3 998.3 2.2
25/04:00pm 19.5 21.7 19.2 98 0.2 NNE 6 9 3 5 998.6 998.6 1.4
25/03:30pm 19.1 20.9 18.8 98 0.2 NNE 7 13 4 7 999.2 999.2 1.4
25/03:00pm 18.8 19.7 18.5 98 0.2 NE 11 17 6 9 999.3 999.3 1.2
25/02:30pm 18.6 19.8 18.3 98 0.2 NE 9 13 5 7 999.8 999.8 1.2
25/02:00pm 18.6 19.8 18.3 98 0.2 N 9 13 5 7 1000.1 1000.1 1.2
25/01:30pm 18.0 18.2 17.7 98 0.2 NW 13 20 7 11 1000.5 1000.5 0.8
25/01:12pm 17.4 16.0 16.9 97 0.3 WNW 20 32 11 17 999.8 999.8 0.6
25/01:00pm 17.9 15.5 17.3 96 0.4 NW 26 37 14 20 1001.5 1001.5 0.0
25/12:59pm 18.0 15.5 17.0 94 0.6 NW 26 37 14 20 1001.4 1001.4 0.0
25/12:30pm 20.2 16.7 15.6 75 2.7 NW 28 39 15 21 999.7 999.7 0.0
25/12:00pm 20.2 17.4 15.4 74 2.9 NW 24 32 13 17 999.3 999.3 0.0
25/11:30am 20.4 17.1 15.0 71 3.2 NW 26 35 14 19 998.9 998.9 0.0
25/11:00am 21.1 18.2 15.2 69 3.5 NW 24 32 13 17 998.6 998.6 0.0
25/10:30am 22.9 21.3 16.0 65 4.2 NNW 19 24 10 13 998.0 998.0 0.0
25/10:00am 20.8 18.3 14.2 66 3.9 WNW 20 28 11 15 998.3 998.3 0.0
25/09:30am 22.3 21.0 14.9 63 4.4 NNW 15 20 8 11 997.3 997.3 0.0
25/09:00am 20.9 19.2 14.8 68 3.6 NNW 17 20 9 11 997.5 997.5 0.0
25/08:30am 21.4 20.7 14.3 64 4.1 NW 11 15 6 8 997.4 997.4 0.0
25/08:00am 24.0 23.0 13.5 52 6.2 N 11 15 6 8 997.2 997.2 0.0
25/07:30am 23.8 22.0 13.4 52 6.0 N 15 22 8 12 996.9 996.9 0.0
25/07:00am 22.7 20.6 12.3 52 5.9 N 15 20 8 11 996.5 996.5 0.0
25/06:30am 21.6 19.4 12.2 55 5.3 N 15 20 8 11 996.4 996.4 0.0
25/06:00am 19.5 17.8 12.3 63 4.1 NNE 13 17 7 9 996.6 996.6 0.0
25/05:30am 18.8 18.1 13.2 70 3.2 NNE 9 13 5 7 997.5 997.5 0.0
25/05:00am 18.8 16.6 13.2 70 3.2 NW 17 20 9 11 997.9 997.9 0.0
25/04:30am 20.1 16.6 12.1 60 4.5 NW 22 32 12 17 997.9 997.9 0.0
25/04:00am 20.7 16.6 11.6 56 5.1 NW 24 32 13 17 998.1 998.1 0.0
25/03:40am 21.9 17.3 11.0 50 6.0 W 26 43 14 23 998.3 998.3 0.0
25/03:30am 24.6 21.4 10.1 40 8.0 NNW 17 24 9 13 997.6 997.6 0.0
25/03:00am 23.9 22.1 9.5 40 7.9 NNW 9 17 5 9 997.4 997.4 0.0
25/02:30am 23.9 20.9 9.1 39 8.0 NNE 15 20 8 11 998.1 998.1 0.0
25/02:00am 24.9 20.8 8.8 36 8.7 NNE 20 28 11 15 998.8 998.8 0.0
25/01:30am 24.1 20.3 8.9 38 8.2 NNE 19 28 10 15 999.4 999.4 0.0
25/01:00am 24.0 20.6 9.2 39 8.1 NNE 17 24 9 13 1000.0 1000.0 0.0
25/12:30am 24.0 20.2 9.2 39 8.0 NNE 19 30 10 16 1000.3 1000.3 0.0
25/12:00am 23.1 19.5 10.5 45 7.0 NNE 20 26 11 14 1000.3 1000.3 0.0
 
Date/Time
EDT
Temp
°C
App
Temp
°C
Dew
Point
°C
Rel
Hum
%
Delta-T
°C
Wind Press
QNH
hPa
Press
MSL
hPa
Rain since
9am
mm
Dir  Spd
km/h
Gust
km/h
Spd
kts
Gust
kts
24/11:30pm 19.4 19.0 13.1 67 3.6 NNE 7 11 4 6 1001.0 1001.0 0.0
24/11:00pm 18.0 19.4 15.3 84 1.6 ENE 2 7 1 4 1001.5 1001.5 0.0
24/10:30pm 18.0 18.8 15.8 87 1.3 NE 6 9 3 5 1002.1 1002.1 0.0
24/10:00pm 17.3 17.4 15.6 90 1.0 E 9 9 5 5 1002.8 1002.8 0.0
24/09:30pm 17.5 17.7 15.7 89 1.1 ESE 9 11 5 6 1003.5 1003.5 0.0
24/09:00pm 17.9 17.7 15.7 87 1.3 SE 11 17 6 9 1003.6 1003.6 0.0
24/08:30pm 19.4 19.5 15.5 78 2.3 S 9 13 5 7 1004.1 1004.1 0.0
24/08:00pm 20.3 20.7 15.3 73 3.0 ENE 7 11 4 6 1003.5 1003.5 0.0
24/07:30pm 21.1 21.3 14.7 67 3.8 ESE 7 9 4 5 1004.5 1004.5 0.0
24/07:00pm 21.6 22.6 14.3 63 4.3 ENE 2 7 1 4 1005.1 1005.1 0.0
24/06:30pm 21.4 22.3 14.1 63 4.2 N 2 7 1 4 1005.3 1005.3 0.0
24/06:00pm 20.0 19.0 13.5 66 3.7 WNW 11 13 6 7 1006.1 1006.1 0.0
24/05:30pm 20.5 19.3 13.9 66 3.8 NW 13 17 7 9 1006.6 1006.6 0.0
24/05:00pm 18.5 17.6 13.8 74 2.7 NW 11 13 6 7 1006.6 1006.6 0.0
24/04:30pm 18.8 17.8 13.4 71 3.1 NW 11 17 6 9 1006.8 1006.8 0.0
24/04:00pm 19.5 16.5 12.5 64 3.9 WNW 20 26 11 14 1007.4 1007.4 0.0
24/03:30pm 23.3 23.2 14.0 56 5.4 WSW 7 17 4 9 1007.0 1007.0 0.0
24/03:00pm 22.1 21.1 14.5 62 4.5 W 13 15 7 8 1007.3 1007.3 0.0
24/02:30pm 21.2 20.9 14.4 65 4.0 WSW 9 13 5 7 1007.1 1007.1 0.0
24/02:00pm 21.1 20.6 15.0 68 3.6 WSW 11 17 6 9 1007.3 1007.3 0.0
24/01:30pm 23.2 23.4 15.8 63 4.5 WSW 9 15 5 8 1008.0 1008.0 0.0
24/01:00pm 20.0 18.9 13.0 64 4.0 WNW 11 15 6 8 1007.9 1007.9 0.0
24/12:30pm 23.0 22.4 15.6 63 4.4 WNW 13 17 7 9 1008.4 1008.4 0.0
24/12:00pm 21.6 21.6 14.3 63 4.3 W 7 11 4 6 1008.6 1008.6 0.0
24/11:30am 19.9 19.4 13.8 68 3.5 W 9 15 5 8 1009.2 1009.2 0.0
24/11:00am 19.7 19.3 12.9 65 3.8 NNW 7 13 4 7 1009.4 1009.4 0.0
24/10:30am 19.1 17.8 12.4 65 3.7 N 11 19 6 10 1010.0 1010.0 0.0
24/10:00am 17.9 16.4 11.9 68 3.3 ENE 11 19 6 10 1010.2 1010.2 0.0
24/09:30am 17.7 16.4 12.4 71 2.9 E 11 15 6 8 1010.7 1010.7 0.0
24/09:00am 17.0 15.6 12.1 73 2.7 NE 11 17 6 9 1011.2 1011.2 0.0
24/08:30am 15.7 14.7 13.5 87 1.2 NE 11 17 6 9 1011.3 1011.3 0.0
24/08:00am 14.8 14.4 14.2 96 0.3 NNE 9 15 5 8 1011.6 1011.6 0.0
24/07:30am 14.4 13.9 13.9 97 0.3 NNE 9 13 5 7 1011.3 1011.3 0.0
24/07:00am 14.2 13.7 13.7 97 0.3 NNE 9 11 5 6 1011.1 1011.1 0.0
24/06:30am 14.1 13.9 13.6 97 0.3 NNW 7 9 4 5 1010.7 1010.7 0.0
24/06:00am 14.1 13.9 13.6 97 0.3 NNW 7 9 4 5 1010.4 1010.4 0.0
24/05:30am 14.2 14.2 13.7 97 0.3 NNE 6 7 3 4 1010.2 1010.2 0.0
24/05:00am 14.1 14.5 13.6 97 0.3 NNE 4 7 2 4 1010.0 1010.0 0.0
24/04:30am 14.1 13.9 13.6 97 0.3 NE 7 11 4 6 1009.5 1009.5 0.0
24/04:01am 14.3 13.5 14.0 98 0.2 NNE 11 13 6 7 1010.0 1010.0 0.0
24/04:00am 14.3 13.5 14.0 98 0.2 NNE 11 13 6 7 1010.0 1010.0 0.0
24/03:37am 14.5 14.5 14.2 98 0.2 N 7 9 4 5 1010.6 1010.6 0.0
24/03:30am 14.5 14.7 14.2 98 0.2 NW 6 9 3 5 1010.7 1010.7 0.0
24/03:25am 14.4 14.6 14.1 98 0.2 WNW 6 9 3 5 1010.9 1010.9 0.0
24/03:13am 14.4 14.4 14.1 98 0.2 NNW 7 9 4 5 1010.8 1010.8 0.0
24/03:00am 14.4 14.4 14.1 98 0.2 NNW 7 11 4 6 1010.1 1010.1 0.0
24/02:39am 14.4 14.4 14.1 98 0.2 NNW 7 7 4 4 1010.4 1010.4 0.0
24/02:30am 14.4 14.9 14.1 98 0.2 WNW 4 7 2 4 1010.4 1010.4 0.0
24/02:28am 14.4 14.9 14.1 98 0.2 W 4 7 2 4 1010.4 1010.4 0.0
24/02:00am 14.3 15.6 14.0 98 0.2 CALM 0 0 0 0 1010.5 1010.5 0.0
24/01:30am 14.2 15.4 13.9 98 0.2 CALM 0 0 0 0 1010.5 1010.5 0.0
24/01:00am 14.3 15.2 14.0 98 0.2 N 2 6 1 3 1010.9 1010.9 0.0
24/12:30am 14.2 14.3 13.9 98 0.2 NE 6 9 3 5 1011.2 1011.2 0.0
24/12:00am 14.4 14.4 14.1 98 0.2 N 7 9 4 5 1011.7 1011.7 0.0
 
Date/Time
EDT
Temp
°C
App
Temp
°C
Dew
Point
°C
Rel
Hum
%
Delta-T
°C
Wind Press
QNH
hPa
Press
MSL
hPa
Rain since
9am
mm
Dir  Spd
km/h
Gust
km/h
Spd
kts
Gust
kts
23/11:30pm 14.3 15.6 14.0 98 0.2 CALM 0 0 0 0 1011.6 1011.6 0.0
23/11:00pm 14.3 14.4 14.0 98 0.2 NE 6 7 3 4 1011.5 1011.5 0.0
23/10:30pm 14.6 14.8 14.3 98 0.2 NNE 6 7 3 4 1011.9 1011.9 0.0
23/10:28pm 14.6 14.8 14.3 98 0.2 NNE 6 7 3 4 1012.0 1012.0 0.0
23/10:05pm 14.8 14.5 14.3 97 0.3 N 9 11 5 6 1012.0 1012.0 0.0
23/10:00pm 14.8 14.5 14.3 97 0.3 N 9 11 5 6 1012.0 1012.0 0.0
23/09:30pm 14.9 14.6 14.4 97 0.3 N 9 11 5 6 1012.1 1012.1 0.0

Other formats

Comma delimited format used in spreadsheet applications
http://www.bom.gov.au/fwo/IDT60801/IDT60801.94956.axf

JavaScript Object Notation format (JSON) in row-major order
http://www.bom.gov.au/fwo/IDT60801/IDT60801.94956.json

Data quality

Most of these data are generated automatically and are frequently updated. Quality checks on data are not normally performed. It is possible for incorrect values to appear. Refer to information at About Latest Weather Observations and please check the disclaimer before using these data.